createdAt,value
2023-05-19T00:02:12.376Z,28.50
2023-05-19T00:04:40.776Z,28.50
2023-05-19T00:07:12.435Z,28.50
2023-05-19T00:09:40.601Z,28.50
2023-05-19T00:12:10.750Z,28.50
2023-05-19T00:14:38.899Z,28.50
2023-05-19T00:17:07.903Z,28.50
2023-05-19T00:19:38.002Z,28.50
2023-05-19T00:22:06.231Z,28.50
2023-05-19T00:24:34.107Z,28.50
2023-05-19T00:27:01.781Z,28.50
2023-05-19T00:29:29.786Z,28.50
2023-05-19T00:31:57.815Z,28.50
2023-05-19T00:34:25.629Z,28.50
2023-05-19T00:36:54.712Z,28.50
2023-05-19T00:39:22.455Z,28.50
2023-05-19T00:41:50.208Z,28.50
2023-05-19T00:44:17.897Z,28.50
2023-05-19T00:46:45.946Z,28.50
2023-05-19T00:49:13.669Z,28.50
2023-05-19T00:51:42.088Z,28.50
2023-05-19T00:54:11.245Z,28.50
2023-05-19T00:56:38.988Z,28.50
2023-05-19T00:59:06.788Z,28.50
2023-05-19T01:01:34.806Z,28.50
2023-05-19T01:04:04.043Z,28.50
2023-05-19T01:06:31.788Z,28.50
2023-05-19T01:08:59.674Z,28.40
2023-05-19T01:11:28.828Z,28.40
2023-05-19T01:13:57.135Z,28.40
2023-05-19T01:16:32.165Z,28.40
2023-05-19T01:19:05.633Z,28.40
2023-05-19T01:22:03.142Z,28.40
2023-05-19T01:25:01.745Z,28.40
2023-05-19T01:27:47.656Z,28.40
2023-05-19T01:30:27.520Z,28.40
2023-05-19T01:32:58.243Z,28.40
2023-05-19T01:35:27.389Z,28.40
2023-05-19T01:37:56.866Z,28.40
2023-05-19T01:40:25.697Z,28.40
2023-05-19T01:42:57.427Z,28.40
2023-05-19T01:45:28.616Z,28.40
2023-05-19T01:47:58.245Z,28.40
2023-05-19T01:50:26.483Z,28.40
2023-05-19T01:52:54.758Z,28.40
2023-05-19T01:55:23.832Z,28.40
2023-05-19T01:57:59.709Z,28.40
2023-05-19T02:00:35.569Z,28.40
2023-05-19T02:03:14.249Z,28.40
2023-05-19T02:05:49.277Z,28.30
2023-05-19T02:08:25.264Z,28.30
2023-05-19T02:10:58.943Z,28.30
2023-05-19T02:13:30.994Z,28.30
2023-05-19T02:16:04.329Z,28.30
2023-05-19T02:18:33.393Z,28.30
2023-05-19T02:21:01.112Z,28.30
2023-05-19T02:23:28.843Z,28.30
2023-05-19T02:25:56.542Z,28.30
2023-05-19T02:28:27.771Z,28.30
2023-05-19T02:30:55.497Z,28.30
2023-05-19T02:33:26.055Z,28.30
2023-05-19T02:35:54.028Z,28.30
2023-05-19T02:38:21.791Z,28.30
2023-05-19T02:40:49.515Z,28.30
2023-05-19T02:43:17.182Z,28.30
2023-05-19T02:45:44.843Z,28.30
2023-05-19T02:48:12.664Z,28.30
2023-05-19T02:50:42.993Z,28.30
2023-05-19T02:53:10.717Z,28.30
2023-05-19T02:55:38.397Z,28.30
2023-05-19T02:58:06.045Z,28.30
2023-05-19T03:00:33.855Z,28.30
2023-05-19T03:03:02.842Z,28.30
2023-05-19T03:05:31.150Z,28.30
2023-05-19T03:08:00.603Z,28.20
2023-05-19T03:10:28.266Z,28.20
2023-05-19T03:12:55.923Z,28.30
2023-05-19T03:15:23.653Z,28.20
2023-05-19T03:17:51.971Z,28.20
2023-05-19T03:20:20.035Z,28.20
2023-05-19T03:22:47.697Z,28.20
2023-05-19T03:25:17.093Z,28.20
2023-05-19T03:27:44.745Z,28.20
2023-05-19T03:30:13.722Z,28.20
2023-05-19T03:32:41.463Z,28.20
2023-05-19T03:35:09.857Z,28.20
2023-05-19T03:37:37.584Z,28.20
2023-05-19T03:40:06.116Z,28.20
2023-05-19T03:42:35.180Z,28.20
2023-05-19T03:45:03.495Z,28.20
2023-05-19T03:47:31.798Z,28.20
2023-05-19T03:49:59.489Z,28.20
2023-05-19T03:52:27.151Z,28.20
2023-05-19T03:54:54.816Z,28.20
2023-05-19T03:57:22.600Z,28.20
2023-05-19T03:59:51.653Z,28.20
2023-05-19T04:02:19.476Z,28.20
2023-05-19T04:04:47.266Z,28.20
2023-05-19T04:07:14.986Z,28.20
2023-05-19T04:09:42.660Z,28.20
2023-05-19T04:12:10.652Z,28.20
2023-05-19T04:14:38.317Z,28.10
2023-05-19T04:17:07.642Z,28.20
2023-05-19T04:19:35.435Z,28.10
2023-05-19T04:22:03.138Z,28.10
2023-05-19T04:24:31.136Z,28.10
2023-05-19T04:27:02.447Z,28.10
2023-05-19T04:29:30.531Z,28.10
2023-05-19T04:31:58.204Z,28.10
2023-05-19T04:34:28.704Z,28.10
2023-05-19T04:36:56.482Z,28.10
2023-05-19T04:39:24.161Z,28.10
2023-05-19T04:41:54.014Z,28.10
2023-05-19T04:44:21.767Z,28.10
2023-05-19T04:46:49.972Z,28.10
2023-05-19T04:49:19.266Z,28.10
2023-05-19T04:51:50.229Z,28.10
2023-05-19T04:54:18.048Z,28.10
2023-05-19T04:56:45.718Z,28.10
2023-05-19T04:59:13.386Z,28.10
2023-05-19T05:01:43.090Z,28.10
2023-05-19T05:04:11.030Z,28.10
2023-05-19T05:06:40.488Z,28.10
2023-05-19T05:09:10.450Z,28.10
2023-05-19T05:11:38.702Z,28.10
2023-05-19T05:14:06.758Z,28.10
2023-05-19T05:16:35.510Z,28.10
2023-05-19T05:19:03.899Z,28.10
2023-05-19T05:21:33.018Z,28.10
2023-05-19T05:24:01.179Z,28.10
2023-05-19T05:26:34.172Z,28.10
2023-05-19T05:29:01.977Z,28.10
2023-05-19T05:31:29.886Z,28.10
2023-05-19T05:33:57.586Z,28.10
2023-05-19T05:36:25.300Z,28.20
2023-05-19T05:38:52.995Z,28.20
2023-05-19T05:41:21.725Z,28.20
2023-05-19T05:43:50.762Z,28.20
2023-05-19T05:46:18.493Z,28.20
2023-05-19T05:48:47.092Z,28.20
2023-05-19T05:51:15.294Z,28.20
2023-05-19T05:53:44.244Z,28.20
2023-05-19T05:56:13.588Z,28.20
2023-05-19T05:58:41.676Z,28.20
2023-05-19T06:01:11.540Z,28.20
2023-05-19T06:03:41.389Z,28.20
2023-05-19T06:06:09.290Z,28.20
2023-05-19T06:08:37.049Z,28.20
2023-05-19T06:11:08.381Z,28.20
2023-05-19T06:13:36.537Z,28.20
2023-05-19T06:16:04.426Z,28.20
2023-05-19T06:18:33.522Z,28.20
2023-05-19T06:21:01.664Z,28.20
2023-05-19T06:23:29.384Z,28.20
2023-05-19T06:25:57.769Z,28.20
2023-05-19T06:28:25.477Z,28.20
2023-05-19T06:30:53.186Z,28.20
2023-05-19T06:33:20.833Z,28.20
2023-05-19T06:35:49.880Z,28.30
2023-05-19T06:38:17.588Z,28.30
2023-05-19T06:40:45.359Z,28.30
2023-05-19T06:43:13.023Z,28.30
2023-05-19T06:45:40.755Z,28.30
2023-05-19T06:48:08.479Z,28.30
2023-05-19T06:50:36.240Z,28.30
2023-05-19T06:53:06.111Z,28.30
2023-05-19T06:55:37.106Z,28.30
2023-05-19T06:58:09.054Z,28.30
2023-05-19T07:00:37.560Z,28.30
2023-05-19T07:03:05.470Z,28.30
2023-05-19T07:05:33.281Z,28.30
2023-05-19T07:08:01.698Z,28.30
2023-05-19T07:10:31.019Z,28.30
2023-05-19T07:12:59.145Z,28.30
2023-05-19T07:15:26.899Z,28.30
2023-05-19T07:17:54.604Z,28.30
2023-05-19T07:20:22.254Z,28.30
2023-05-19T07:22:49.941Z,28.30
2023-05-19T07:25:17.767Z,28.30
2023-05-19T07:27:46.891Z,28.30
2023-05-19T07:30:14.853Z,28.40
2023-05-19T07:32:42.608Z,28.40
2023-05-19T07:35:10.583Z,28.40
2023-05-19T07:37:39.558Z,28.40
2023-05-19T07:40:09.149Z,28.40
2023-05-19T07:42:36.830Z,28.40
2023-05-19T07:45:07.024Z,28.50
2023-05-19T07:47:34.743Z,28.50
2023-05-19T07:50:02.544Z,28.50
2023-05-19T07:52:30.437Z,28.50
2023-05-19T07:54:58.155Z,28.50
2023-05-19T07:57:25.859Z,28.60
2023-05-19T07:59:53.608Z,28.60
2023-05-19T08:02:22.856Z,28.60
2023-05-19T08:04:50.635Z,28.60
2023-05-19T08:07:18.633Z,28.60
2023-05-19T08:09:46.331Z,28.70
2023-05-19T08:12:14.001Z,28.70
2023-05-19T08:14:41.670Z,28.70
2023-05-19T08:17:09.386Z,28.70
2023-05-19T08:19:38.434Z,28.70
2023-05-19T08:22:06.223Z,28.70
2023-05-19T08:24:33.938Z,28.70
2023-05-19T08:27:01.624Z,28.70
2023-05-19T08:29:29.311Z,28.70
2023-05-19T08:31:58.402Z,28.70
2023-05-19T08:34:26.258Z,28.70
2023-05-19T08:36:57.725Z,28.70
2023-05-19T08:39:27.080Z,28.80
2023-05-19T08:41:55.154Z,28.70
2023-05-19T08:44:23.627Z,28.70
2023-05-19T08:46:53.959Z,28.70
2023-05-19T08:49:27.728Z,28.70
2023-05-19T08:52:03.436Z,28.70
2023-05-19T08:54:40.029Z,28.70
2023-05-19T08:57:09.981Z,28.70
2023-05-19T08:59:38.613Z,28.70
2023-05-19T09:02:07.211Z,28.70
2023-05-19T09:04:35.222Z,28.70
2023-05-19T09:07:04.704Z,28.70
2023-05-19T09:09:32.403Z,28.70
2023-05-19T09:12:00.129Z,28.70
2023-05-19T09:14:27.864Z,28.70
2023-05-19T09:16:55.873Z,28.70
2023-05-19T09:19:23.828Z,28.70
2023-05-19T09:22:00.255Z,28.70
2023-05-19T09:24:29.739Z,28.70
2023-05-19T09:27:00.038Z,28.70
2023-05-19T09:29:28.249Z,28.70
2023-05-19T09:32:00.593Z,28.70
2023-05-19T09:34:28.718Z,28.70
2023-05-19T09:36:57.827Z,28.70
2023-05-19T09:39:25.914Z,28.70
2023-05-19T09:41:56.106Z,28.70
2023-05-19T09:44:24.303Z,28.70
2023-05-19T09:46:53.079Z,28.70
2023-05-19T09:49:22.574Z,28.70
2023-05-19T09:51:51.355Z,28.70
2023-05-19T09:54:21.657Z,28.70
2023-05-19T09:56:54.294Z,28.70
2023-05-19T09:59:25.477Z,28.70
2023-05-19T10:01:55.341Z,28.70
2023-05-19T10:04:24.288Z,28.70
2023-05-19T10:06:54.353Z,28.70
2023-05-19T10:09:24.795Z,28.70
2023-05-19T10:11:53.084Z,28.70
2023-05-19T10:14:25.346Z,28.70
2023-05-19T10:16:53.968Z,28.60
2023-05-19T10:19:22.852Z,28.70
2023-05-19T10:21:51.277Z,28.70
2023-05-19T10:24:19.885Z,28.70
2023-05-19T10:26:52.485Z,28.60
2023-05-19T10:29:24.098Z,28.70
2023-05-19T10:31:54.457Z,28.60
2023-05-19T10:34:40.586Z,28.60
2023-05-19T10:37:16.989Z,28.60
2023-05-19T10:39:45.211Z,28.60
2023-05-19T10:42:17.863Z,28.60
2023-05-19T10:44:58.048Z,28.60
2023-05-19T10:47:27.272Z,28.60
2023-05-19T10:49:55.816Z,28.60
2023-05-19T10:52:25.982Z,28.70
2023-05-19T10:54:54.448Z,28.60
2023-05-19T10:57:27.453Z,28.70
2023-05-19T10:59:56.894Z,28.60
2023-05-19T11:02:41.123Z,28.60
2023-05-19T11:05:10.597Z,28.60
2023-05-19T11:07:38.419Z,28.60
2023-05-19T11:10:09.566Z,28.60
2023-05-19T11:12:46.194Z,28.60
2023-05-19T11:15:15.426Z,28.60
2023-05-19T11:17:49.866Z,28.60
2023-05-19T11:20:24.996Z,28.60
2023-05-19T11:23:09.496Z,28.60
2023-05-19T11:25:45.139Z,28.60
2023-05-19T11:28:14.203Z,28.60
2023-05-19T11:30:44.344Z,28.60
2023-05-19T11:33:14.728Z,28.60
2023-05-19T11:35:43.296Z,28.60
2023-05-19T11:38:12.469Z,28.60
2023-05-19T11:40:40.532Z,28.60
2023-05-19T11:43:08.274Z,28.60
2023-05-19T11:45:36.674Z,28.60
2023-05-19T11:48:05.372Z,28.60
2023-05-19T11:50:35.316Z,28.60
2023-05-19T11:53:03.075Z,28.60
2023-05-19T11:55:31.381Z,28.60
2023-05-19T12:00:32.192Z,28.60
2023-05-19T12:03:00.248Z,28.60
2023-05-19T12:05:29.268Z,28.60
2023-05-19T12:07:59.983Z,28.60
2023-05-19T12:10:28.982Z,28.60
2023-05-19T12:12:57.309Z,28.60
2023-05-19T12:15:26.165Z,28.70
2023-05-19T12:17:58.702Z,28.60
2023-05-19T12:20:27.352Z,28.60
2023-05-19T12:22:57.957Z,28.70
2023-05-19T12:25:25.940Z,28.60
2023-05-19T12:27:58.403Z,28.60
2023-05-19T12:30:28.753Z,28.70
2023-05-19T12:32:57.945Z,28.70
2023-05-19T12:35:29.369Z,28.70
2023-05-19T12:37:58.568Z,28.60
2023-05-19T12:40:26.883Z,28.70
2023-05-19T12:42:59.084Z,28.70
2023-05-19T12:45:28.823Z,28.60
2023-05-19T12:47:56.956Z,28.70
2023-05-19T12:50:31.499Z,28.70
2023-05-19T12:53:00.809Z,28.70
2023-05-19T12:55:28.491Z,28.70
2023-05-19T12:57:57.889Z,28.70
2023-05-19T13:00:31.180Z,28.70
2023-05-19T13:03:01.538Z,28.70
2023-05-19T13:05:30.809Z,28.70
2023-05-19T13:08:01.902Z,28.70
2023-05-19T13:10:31.469Z,28.70
2023-05-19T13:13:01.125Z,28.70
2023-05-19T13:15:31.751Z,28.70
2023-05-19T13:18:01.239Z,28.70
2023-05-19T13:20:28.999Z,28.70
2023-05-19T13:22:56.994Z,28.70
2023-05-19T13:25:26.808Z,28.70
2023-05-19T13:27:55.411Z,28.70
2023-05-19T13:30:23.816Z,28.70
2023-05-19T13:32:52.524Z,28.70
2023-05-19T13:35:20.954Z,28.70
2023-05-19T13:37:48.946Z,28.70
2023-05-19T13:40:18.090Z,28.70
2023-05-19T13:42:47.327Z,28.70
2023-05-19T13:45:15.127Z,28.70
2023-05-19T13:47:42.826Z,28.70
2023-05-19T13:50:11.076Z,28.70
2023-05-19T13:52:38.738Z,28.70
2023-05-19T13:55:07.826Z,28.70
2023-05-19T13:57:35.535Z,28.70
2023-05-19T14:00:05.975Z,28.70
2023-05-19T14:02:34.347Z,28.70
2023-05-19T14:05:02.032Z,28.70
2023-05-19T14:07:30.140Z,28.70
2023-05-19T14:09:57.828Z,28.70
2023-05-19T14:12:35.451Z,28.70
2023-05-19T14:15:12.972Z,28.70
2023-05-19T14:17:40.623Z,28.70
2023-05-19T14:20:09.644Z,28.70
2023-05-19T14:22:37.457Z,28.70
2023-05-19T14:25:05.473Z,28.70
2023-05-19T14:27:33.160Z,28.70
2023-05-19T14:30:00.939Z,28.70
2023-05-19T14:32:30.634Z,28.70
2023-05-19T14:34:58.499Z,28.70
2023-05-19T14:37:27.513Z,28.70
2023-05-19T14:39:55.352Z,28.70
2023-05-19T14:42:22.987Z,28.70
2023-05-19T14:44:50.696Z,28.70
2023-05-19T14:47:18.370Z,28.70
2023-05-19T14:49:47.403Z,28.70
2023-05-19T14:52:15.212Z,28.70
2023-05-19T14:54:42.990Z,28.70
2023-05-19T14:57:10.710Z,28.70
2023-05-19T14:59:38.537Z,28.70
2023-05-19T15:02:06.668Z,28.70
2023-05-19T15:04:34.344Z,28.70
2023-05-19T15:07:09.753Z,28.70
2023-05-19T15:09:38.616Z,28.70
2023-05-19T15:12:06.750Z,28.70
2023-05-19T15:14:34.404Z,28.70
2023-05-19T15:17:02.128Z,28.70
2023-05-19T15:19:29.878Z,28.70
2023-05-19T15:21:57.646Z,28.70
2023-05-19T15:24:27.030Z,28.70
2023-05-19T15:26:55.429Z,28.70
2023-05-19T15:29:23.089Z,28.70
2023-05-19T15:31:51.899Z,28.70
2023-05-19T15:34:20.310Z,28.70
2023-05-19T15:36:48.280Z,28.70
2023-05-19T15:39:16.008Z,28.70
2023-05-19T15:41:45.148Z,28.70
2023-05-19T15:44:12.892Z,28.70
2023-05-19T15:46:40.889Z,28.70
2023-05-19T15:49:08.611Z,28.70
2023-05-19T15:51:36.506Z,28.70
2023-05-19T15:54:04.261Z,28.70
2023-05-19T15:56:32.006Z,28.70
2023-05-19T15:59:01.216Z,28.70
2023-05-19T16:01:29.017Z,28.70
2023-05-19T16:03:56.903Z,28.70
2023-05-19T16:06:25.124Z,28.70
2023-05-19T16:08:52.783Z,28.70
2023-05-19T16:11:21.129Z,28.70
2023-05-19T16:13:48.821Z,28.70
2023-05-19T16:16:18.808Z,28.70
2023-05-19T16:18:46.675Z,28.70
2023-05-19T16:21:14.375Z,28.70
2023-05-19T16:23:42.022Z,28.70
2023-05-19T16:26:09.816Z,28.70
2023-05-19T16:28:37.452Z,28.70
2023-05-19T16:31:05.194Z,28.70
2023-05-19T16:33:34.225Z,28.70
2023-05-19T16:36:01.907Z,28.70
2023-05-19T16:38:29.544Z,28.70
2023-05-19T16:40:57.239Z,28.70
2023-05-19T16:43:24.938Z,28.70
2023-05-19T16:45:52.722Z,28.70
2023-05-19T16:48:20.449Z,28.70
2023-05-19T16:50:50.223Z,28.70
2023-05-19T16:53:17.911Z,28.70
2023-05-19T16:55:45.602Z,28.70
2023-05-19T16:58:13.352Z,28.70
2023-05-19T17:00:41.023Z,28.70
2023-05-19T17:03:08.823Z,28.70
2023-05-19T17:05:38.907Z,28.70
2023-05-19T17:08:07.956Z,28.70
2023-05-19T17:10:36.043Z,28.70
2023-05-19T17:13:03.779Z,28.70
2023-05-19T17:15:31.796Z,28.70
2023-05-19T17:17:59.599Z,28.70
2023-05-19T17:20:27.320Z,28.70
2023-05-19T17:22:55.003Z,28.70
2023-05-19T17:25:24.015Z,28.70
2023-05-19T17:27:52.361Z,28.70
2023-05-19T17:30:20.106Z,28.70
2023-05-19T17:32:48.091Z,28.70
2023-05-19T17:35:15.835Z,28.70
2023-05-19T17:37:43.515Z,28.70
2023-05-19T17:40:12.533Z,28.70
2023-05-19T17:42:41.585Z,28.70
2023-05-19T17:45:12.032Z,28.60
2023-05-19T17:47:39.829Z,28.70
2023-05-19T17:50:08.635Z,28.70
2023-05-19T17:52:36.798Z,28.60
2023-05-19T17:55:05.474Z,28.60
2023-05-19T17:57:34.736Z,28.70
2023-05-19T18:00:04.630Z,28.60
2023-05-19T18:02:32.938Z,28.60
2023-05-19T18:05:01.842Z,28.70
2023-05-19T18:07:30.306Z,28.60
2023-05-19T18:09:59.276Z,28.60
2023-05-19T18:12:26.953Z,28.60
2023-05-19T18:14:54.652Z,28.60
2023-05-19T18:17:23.931Z,28.60
2023-05-19T18:19:51.678Z,28.60
2023-05-19T18:22:19.377Z,28.60
2023-05-19T18:24:47.175Z,28.60
2023-05-19T18:27:14.835Z,28.60
2023-05-19T18:29:43.373Z,28.60
2023-05-19T18:32:14.330Z,28.60
2023-05-19T18:34:43.518Z,28.60
2023-05-19T18:37:11.217Z,28.60
2023-05-19T18:39:38.999Z,28.60
2023-05-19T18:42:07.178Z,28.60
2023-05-19T18:44:34.886Z,28.60
2023-05-19T18:47:02.562Z,28.60
2023-05-19T18:49:30.390Z,28.60
2023-05-19T18:51:59.401Z,28.60
2023-05-19T18:54:27.084Z,28.60
2023-05-19T18:56:55.294Z,28.60
2023-05-19T18:59:24.460Z,28.60
2023-05-19T19:01:53.671Z,28.60
2023-05-19T19:04:21.877Z,28.60
2023-05-19T19:06:49.849Z,28.60
2023-05-19T19:09:19.240Z,28.60
2023-05-19T19:11:46.922Z,28.60
2023-05-19T19:14:14.641Z,28.60
2023-05-19T19:16:42.406Z,28.60
2023-05-19T19:19:10.310Z,28.60
2023-05-19T19:21:38.129Z,28.60
2023-05-19T19:24:06.557Z,28.60
2023-05-19T19:26:35.573Z,28.60
2023-05-19T19:29:03.243Z,28.60
2023-05-19T19:31:30.978Z,28.60
2023-05-19T19:34:00.829Z,28.60
2023-05-19T19:36:28.510Z,28.60
2023-05-19T19:38:56.254Z,28.60
2023-05-19T19:41:25.297Z,28.60
2023-05-19T19:43:54.332Z,28.60
2023-05-19T19:46:22.337Z,28.60
2023-05-19T19:48:50.076Z,28.60
2023-05-19T19:51:17.757Z,28.60
2023-05-19T19:53:45.449Z,28.60
2023-05-19T19:56:13.214Z,28.60
2023-05-19T19:58:40.858Z,28.60
2023-05-19T20:01:09.977Z,28.50
2023-05-19T20:03:38.164Z,28.60
2023-05-19T20:06:05.987Z,28.50
2023-05-19T20:08:33.690Z,28.50
2023-05-19T20:11:01.570Z,28.50
2023-05-19T20:13:30.623Z,28.50
2023-05-19T20:15:59.112Z,28.50
2023-05-19T20:18:29.648Z,28.50
2023-05-19T20:20:57.687Z,28.50
2023-05-19T20:23:27.162Z,28.50
2023-05-19T20:26:10.893Z,28.50
2023-05-19T20:28:41.137Z,28.50
2023-05-19T20:31:08.850Z,28.50
2023-05-19T20:33:38.056Z,28.50
2023-05-19T20:36:06.654Z,28.50
2023-05-19T20:38:34.373Z,28.50
2023-05-19T20:41:03.805Z,28.50
2023-05-19T20:43:32.942Z,28.50
2023-05-19T20:46:01.406Z,28.50
2023-05-19T20:48:29.182Z,28.50
2023-05-19T20:50:58.288Z,28.50
2023-05-19T20:53:26.066Z,28.50
2023-05-19T20:55:53.762Z,28.50
2023-05-19T20:58:21.570Z,28.50
2023-05-19T21:00:54.159Z,28.50
2023-05-19T21:03:23.402Z,28.50
2023-05-19T21:05:51.384Z,28.50
2023-05-19T21:08:20.585Z,28.50
2023-05-19T21:10:48.406Z,28.50
2023-05-19T21:13:16.265Z,28.50
2023-05-19T21:15:43.975Z,28.50
2023-05-19T21:18:12.945Z,28.50
2023-05-19T21:20:41.140Z,28.50
2023-05-19T21:23:08.822Z,28.50
2023-05-19T21:25:37.824Z,28.50
2023-05-19T21:28:05.978Z,28.50
2023-05-19T21:30:33.937Z,28.50
2023-05-19T21:33:01.829Z,28.50
2023-05-19T21:35:29.603Z,28.50
2023-05-19T21:37:57.383Z,28.50
2023-05-19T21:40:25.096Z,28.50
2023-05-19T21:42:54.121Z,28.50
2023-05-19T21:45:21.824Z,28.50
2023-05-19T21:47:49.520Z,28.40
2023-05-19T21:50:17.539Z,28.50
2023-05-19T21:52:45.180Z,28.50
2023-05-19T21:55:12.863Z,28.40
2023-05-19T21:57:40.514Z,28.50
2023-05-19T22:00:13.120Z,28.40
2023-05-19T22:02:41.282Z,28.40
2023-05-19T22:05:09.659Z,28.40
2023-05-19T22:07:37.341Z,28.40
2023-05-19T22:10:05.446Z,28.40
2023-05-19T22:12:33.156Z,28.40
2023-05-19T22:15:01.014Z,28.40
2023-05-19T22:17:30.138Z,28.40
2023-05-19T22:19:57.849Z,28.40
2023-05-19T22:22:25.536Z,28.40
2023-05-19T22:24:53.202Z,28.40
2023-05-19T22:27:20.845Z,28.40
2023-05-19T22:29:48.491Z,28.40
2023-05-19T22:32:18.294Z,28.40
2023-05-19T22:34:47.594Z,28.40
2023-05-19T22:37:15.289Z,28.40
2023-05-19T22:39:43.028Z,28.40
2023-05-19T22:42:11.082Z,28.40
2023-05-19T22:44:38.720Z,28.40
2023-05-19T22:47:06.415Z,28.40
2023-05-19T22:49:34.083Z,28.40
2023-05-19T22:52:03.061Z,28.40
2023-05-19T22:54:30.945Z,28.40
2023-05-19T22:56:58.607Z,28.40
2023-05-19T22:59:26.269Z,28.40
2023-05-19T23:01:53.950Z,28.40
2023-05-19T23:04:21.757Z,28.40
2023-05-19T23:06:50.320Z,28.40
2023-05-19T23:09:19.330Z,28.40
2023-05-19T23:11:47.099Z,28.30
2023-05-19T23:14:14.750Z,28.40
2023-05-19T23:16:42.525Z,28.30
2023-05-19T23:19:10.290Z,28.30
2023-05-19T23:21:37.991Z,28.30
2023-05-19T23:24:06.666Z,28.30
2023-05-19T23:26:35.658Z,28.30
2023-05-19T23:29:03.325Z,28.30
2023-05-19T23:31:30.997Z,28.30
2023-05-19T23:34:02.401Z,28.30
2023-05-19T23:36:30.140Z,28.30
2023-05-19T23:38:57.855Z,28.30
2023-05-19T23:41:25.736Z,28.30
2023-05-19T23:43:54.838Z,28.30
2023-05-19T23:46:22.707Z,28.30
2023-05-19T23:48:50.520Z,28.30
2023-05-19T23:51:18.195Z,28.30
2023-05-19T23:53:45.878Z,28.30
2023-05-19T23:56:13.534Z,28.30
2023-05-19T23:58:41.282Z,28.30
